Clarksville, TN (37043)

01:04 AM CST del 24 Gennaio 2017 (GMT -0600)
Gray Hawk Trail | | Change Station

Alt. 583 ft 36.50 °N, 87.23 °W | Updated 6 minutes ago

Coperto
Coperto
41.7 °F
Sembra 42 °F
N
0.0
Vento Variabile Vento da Nord
Gusts 1.2 mph

Oggi
Massima -- | Minima -- °F
--% Possibilità di precip.
Ieri
Massima -- | Minima -- °F
Precip. -- in
Pressione 29.86 in
Visibilità 10.0 miglia
Nuvole Coperto 1700 ft
Raffreddamento del vento 42 °F
Punto di rugiada 36 °F
Umidità 79%
Piovosità 0.00 in
Spessore del manto nevoso Non disponibile.
6:55 AM 5:06 PM
Luna calante, 13% visible
METAR KHOP 240658Z AUTO 30009KT 10SM OVC017 05/02 A2984 RMK AO2 SLP109 T00500015
Pressione 29.86 in
Visibilità 10.0 miglia
Nuvole Coperto 1700 ft
Raffreddamento del vento 42 °F
Punto di rugiada 36 °F
Umidità 79%
Piovosità 0.00 in
Spessore del manto nevoso Non disponibile.
6:55 AM 5:06 PM
Luna calante, 13% visible
METAR KHOP 240658Z AUTO 30009KT 10SM OVC017 05/02 A2984 RMK AO2 SLP109 T00500015

Get Your Daily Forecast Email!

Thanks for signing up!

Be on the lookout for a verification email in your inbox.

You'll start receiving the daily forecast at 8 AM.

×

10-Day Weather Forecast

Almanac

Astronomia

Jan. 24, 2017 Alba Tramonto
Ora attuale
Crepuscolo civile
Crepuscolo nautico
Crepuscolo astronomico
Luna
Estensione della luce visibile
Lunghezza del giorno
Tomorrow will be .
, % of the Moon is Illuminated

Gli estremi di oggi

State Highs State Lows

Community

WunderPhotos

Upload Photos

1,962,540 foto caricate!

WunderBlog® & News

Nearby

Qualità dell'aria

  Qualità dell'aria Indice AQ Inquinante
Not available.

Profondità neve

Stazione Profondità Altitudine

Attività sismica

Città  Distanza Mag. Data & Ora
Minimo Magnitudo Mostrato è 2.5.

Temperature delle acque costiere

Località Temperatura

Stations

Stazioni meteo nelle vicinanze

Ubicazione della stazione Temp. Raffreddamento del vento Punto di rugiada Umidità Vento Precip. Alt. Aggiornato Tipo
                   

Watches & Warnings

There are currently no watches in effect.